LGSA/CHQ METAR and TAF weather

Enter ICAO airport designator
Station Type Date Time Source
LGSA METAR 2020/09/25 05:20 UTC NOAA

LGSA 250520Z 27012KT 9999 FEW025 23/21 Q1012


Station Type Date Time Source
LGSA Decoded METAR 2020/09/25 05:20 UTC NOAA

Souda Airport , Greece (LGSA) 35-29N 024-07E 151M
Sep 25, 2020 - 01:20 AM EDT / 2020.09.25 0520 UTC
Wind: from the W (270 degrees) at 14 MPH (12 KT):0
Visibility: greater than 7 mile(s):0
Sky conditions: mostly clear
Temperature: 73 F (23 C)
Dew Point: 69 F (21 C)
Relative Humidity: 88%
Pressure (altimeter): 29.88 in. Hg (1012 hPa)
ob: LGSA 250520Z 27012KT 9999 FEW025 23/21 Q1012
cycle: 5

Station Type Date Time Source
LGSA TAF 2020/09/25 06:12 UTC NOAA

TAF LGSA 250500Z 2506/2606 28015KT 9999 FEW025
TEMPO 2600/2606 05010KT

Example: see airport list